Time;durP1;ratioP1;P1;durP2;ratioP2;P2;SDS_P1;SDS_P2;PMS_P1;PMS_P2;Temp;Humidity;BMP_temperature;BMP_pressure;BME280_temperature;BME280_humidity;BME280_pressure;Samples;Min_cycle;Max_cycle;Signal;HPM_P1;HPM_P2
2021/11/21 00:00:23;;;;;;;15.80;11.93;;;;;;;;;;5054722;28;20128;-57
2021/11/21 00:02:49;;;;;;;14.57;11.95;;;;;;;;;;5051067;28;20036;-58
2021/11/21 00:05:15;;;;;;;16.20;11.35;;;;;;;;;;5034697;28;20383;-58
2021/11/21 00:07:42;;;;;;;13.85;12.35;;;;;;;;;;5035033;28;20053;-58
2021/11/21 00:10:08;;;;;;;10.70;9.40;;;;;;;;;;5034469;28;20053;-57
2021/11/21 00:12:34;;;;;;;15.30;11.63;;;;;;;;;;5034649;28;20021;-58
2021/11/21 00:15:00;;;;;;;13.55;10.52;;;;;;;;;;5034597;28;20018;-58
2021/11/21 00:17:26;;;;;;;18.70;13.07;;;;;;;;;;5034185;28;20389;-58
2021/11/21 00:19:54;;;;;;;14.98;12.65;;;;;;;;;;5034024;28;20419;-58
2021/11/21 00:22:20;;;;;;;15.70;10.93;;;;;;;;;;5034518;28;20029;-58
2021/11/21 00:24:46;;;;;;;16.77;12.15;;;;;;;;;;5034376;28;20371;-58
2021/11/21 00:27:12;;;;;;;16.27;11.90;;;;;;;;;;5033014;28;20027;-57
2021/11/21 00:29:38;;;;;;;13.32;10.85;;;;;;;;;;5033673;28;20048;-58
2021/11/21 00:32:05;;;;;;;11.63;10.43;;;;;;;;;;5034458;28;20029;-58
2021/11/21 00:34:31;;;;;;;14.75;11.80;;;;;;;;;;5034433;28;20502;-58
2021/11/21 00:36:57;;;;;;;15.57;11.80;;;;;;;;;;5034039;28;20124;-57
2021/11/21 00:39:23;;;;;;;14.43;11.88;;;;;;;;;;5033677;28;20034;-57
2021/11/21 00:41:50;;;;;;;13.05;11.65;;;;;;;;;;5034531;28;20033;-58
2021/11/21 00:44:15;;;;;;;12.43;10.10;;;;;;;;;;5034503;28;20029;-58
2021/11/21 00:46:41;;;;;;;12.48;10.85;;;;;;;;;;5034279;28;20040;-58
2021/11/21 00:49:13;;;;;;;17.88;12.18;;;;;;;;;;5033479;28;20143;-58
2021/11/21 00:51:39;;;;;;;11.40;10.00;;;;;;;;;;5034043;28;20030;-57
2021/11/21 00:54:21;;;;;;;11.68;10.48;;;;;;;;;;5033999;28;20029;-58
2021/11/21 00:56:48;;;;;;;11.73;9.82;;;;;;;;;;5033566;28;20110;-58
2021/11/21 00:59:19;;;;;;;11.68;9.98;;;;;;;;;;5033392;28;20434;-58
2021/11/21 01:01:45;;;;;;;12.10;10.88;;;;;;;;;;5033907;28;20033;-58
2021/11/21 01:04:11;;;;;;;13.13;9.70;;;;;;;;;;5048223;28;20021;-58
2021/11/21 01:06:36;;;;;;;14.65;10.93;;;;;;;;;;5053610;28;20112;-58
2021/11/21 01:09:03;;;;;;;12.98;11.02;;;;;;;;;;5052971;28;20103;-57
2021/11/21 01:11:29;;;;;;;16.85;11.57;;;;;;;;;;5053316;28;20438;-58
2021/11/21 01:13:55;;;;;;;13.60;10.90;;;;;;;;;;5053733;28;20064;-57
2021/11/21 01:16:21;;;;;;;13.00;10.23;;;;;;;;;;5053490;28;20500;-57
2021/11/21 01:18:47;;;;;;;12.57;10.10;;;;;;;;;;5052754;28;20025;-56
2021/11/21 01:21:13;;;;;;;14.55;10.73;;;;;;;;;;5053300;28;20029;-57
2021/11/21 01:23:39;;;;;;;15.00;10.35;;;;;;;;;;5053254;28;20111;-56
2021/11/21 01:26:05;;;;;;;17.33;12.20;;;;;;;;;;5052986;28;20017;-58
2021/11/21 01:28:31;;;;;;;16.35;10.55;;;;;;;;;;5052747;28;20021;-55
2021/11/21 01:30:57;;;;;;;13.25;9.77;;;;;;;;;;5053214;28;20029;-58
2021/11/21 01:33:23;;;;;;;11.23;9.85;;;;;;;;;;5053044;28;20036;-58
2021/11/21 01:35:49;;;;;;;12.77;9.82;;;;;;;;;;5052993;28;20037;-58
2021/11/21 01:38:15;;;;;;;13.32;11.70;;;;;;;;;;5052142;28;20037;-58
2021/11/21 01:40:41;;;;;;;14.90;11.05;;;;;;;;;;5052819;28;20025;-57
2021/11/21 01:43:08;;;;;;;12.10;10.77;;;;;;;;;;5053383;28;20068;-58
2021/11/21 01:45:34;;;;;;;12.55;10.63;;;;;;;;;;5052837;28;20066;-58
2021/11/21 01:48:00;;;;;;;13.77;10.43;;;;;;;;;;5052161;28;20029;-58
2021/11/21 01:50:28;;;;;;;12.02;10.07;;;;;;;;;;5052699;28;20078;-57
2021/11/21 01:52:54;;;;;;;13.30;10.60;;;;;;;;;;5052540;28;20044;-58
2021/11/21 01:55:20;;;;;;;11.52;9.85;;;;;;;;;;5052595;28;20482;-58
2021/11/21 01:57:46;;;;;;;12.57;9.88;;;;;;;;;;5052243;28;20029;-58
2021/11/21 02:00:13;;;;;;;13.35;10.07;;;;;;;;;;5052814;28;20378;-58
2021/11/21 02:02:39;;;;;;;16.38;10.95;;;;;;;;;;5050713;28;20033;-57
2021/11/21 02:05:06;;;;;;;14.20;10.05;;;;;;;;;;5032476;28;20025;-57
2021/11/21 02:07:32;;;;;;;11.65;8.82;;;;;;;;;;5031917;28;20034;-58
2021/11/21 02:09:58;;;;;;;12.45;9.57;;;;;;;;;;5032205;28;20076;-58
2021/11/21 02:12:24;;;;;;;9.05;7.75;;;;;;;;;;5032977;28;20025;-58
2021/11/21 02:14:50;;;;;;;8.48;7.53;;;;;;;;;;5032664;28;20430;-58
2021/11/21 02:17:16;;;;;;;9.40;7.90;;;;;;;;;;5032390;28;20037;-58
2021/11/21 02:19:42;;;;;;;12.75;7.00;;;;;;;;;;5032057;28;20092;-58
2021/11/21 02:22:08;;;;;;;11.13;8.52;;;;;;;;;;5032264;28;20115;-58
2021/11/21 02:24:34;;;;;;;11.25;8.15;;;;;;;;;;5032404;28;20443;-57
2021/11/21 02:27:02;;;;;;;9.52;8.52;;;;;;;;;;5032433;28;20056;-58
2021/11/21 02:29:28;;;;;;;13.05;8.45;;;;;;;;;;5031793;28;20022;-57
2021/11/21 02:31:54;;;;;;;10.00;8.15;;;;;;;;;;5032241;28;20053;-56
2021/11/21 02:34:20;;;;;;;10.75;8.02;;;;;;;;;;5032205;28;20103;-58
2021/11/21 02:36:46;;;;;;;11.70;8.55;;;;;;;;;;5032115;28;20037;-58
2021/11/21 02:39:13;;;;;;;12.77;9.63;;;;;;;;;;5031357;28;20040;-57
2021/11/21 02:41:39;;;;;;;10.65;8.35;;;;;;;;;;5032365;28;20033;-58
2021/11/21 02:44:05;;;;;;;12.13;9.27;;;;;;;;;;5032169;28;20418;-57
2021/11/21 02:46:31;;;;;;;11.38;8.18;;;;;;;;;;5032177;28;20029;-58
2021/11/21 02:48:58;;;;;;;12.38;8.13;;;;;;;;;;5031389;28;20036;-58
2021/11/21 02:51:24;;;;;;;14.00;9.57;;;;;;;;;;5031849;28;20025;-57
2021/11/21 02:53:50;;;;;;;10.00;8.10;;;;;;;;;;5032117;28;20029;-57
2021/11/21 02:56:17;;;;;;;7.88;6.65;;;;;;;;;;5032016;28;20105;-57
2021/11/21 02:58:44;;;;;;;8.20;6.63;;;;;;;;;;5031357;28;20042;-57
2021/11/21 03:01:22;;;;;;;10.10;7.13;;;;;;;;;;5032033;28;20029;-57
2021/11/21 03:03:48;;;;;;;7.78;6.57;;;;;;;;;;5043047;28;20485;-57
2021/11/21 03:06:14;;;;;;;12.27;5.72;;;;;;;;;;5051801;28;20344;-57
2021/11/21 03:08:40;;;;;;;11.13;5.55;;;;;;;;;;5051252;28;20021;-57
2021/11/21 03:11:29;;;;;;;7.25;5.50;;;;;;;;;;5051943;28;20040;-57
2021/11/21 03:13:57;;;;;;;9.20;6.47;;;;;;;;;;5048610;28;20044;-58
2021/11/21 03:16:23;;;;;;;6.85;6.15;;;;;;;;;;5051371;28;20036;-57
2021/11/21 03:18:49;;;;;;;14.50;6.68;;;;;;;;;;5051949;28;20029;-57
2021/11/21 03:21:15;;;;;;;15.57;7.70;;;;;;;;;;5055382;28;20477;-58
2021/11/21 03:23:41;;;;;;;8.43;7.00;;;;;;;;;;5055421;28;20029;-58
2021/11/21 03:26:07;;;;;;;13.38;7.05;;;;;;;;;;5055559;28;20048;-58
2021/11/21 03:28:33;;;;;;;9.75;7.03;;;;;;;;;;5054667;28;20036;-58
2021/11/21 03:30:59;;;;;;;11.95;7.53;;;;;;;;;;5055334;28;20021;-58
2021/11/21 03:33:25;;;;;;;9.07;6.78;;;;;;;;;;5055422;28;20029;-58
2021/11/21 03:35:51;;;;;;;10.25;6.95;;;;;;;;;;5055532;28;20391;-58
2021/11/21 03:38:17;;;;;;;15.40;6.68;;;;;;;;;;5054528;28;20041;-58
2021/11/21 03:40:43;;;;;;;9.82;7.68;;;;;;;;;;5055380;28;20104;-58
2021/11/21 03:43:09;;;;;;;8.02;6.82;;;;;;;;;;5055160;28;20029;-58
2021/11/21 03:45:35;;;;;;;10.00;6.93;;;;;;;;;;5055026;28;20119;-58
2021/11/21 03:48:01;;;;;;;8.00;6.88;;;;;;;;;;5054478;28;20123;-58
2021/11/21 03:50:28;;;;;;;8.00;5.95;;;;;;;;;;5055233;28;20049;-58
2021/11/21 03:52:53;;;;;;;8.45;6.80;;;;;;;;;;5054871;28;20058;-58
2021/11/21 03:55:20;;;;;;;8.10;7.18;;;;;;;;;;5055005;28;20486;-58
2021/11/21 03:57:46;;;;;;;9.02;7.72;;;;;;;;;;5054481;28;20425;-58
2021/11/21 04:00:14;;;;;;;7.65;6.22;;;;;;;;;;5055267;28;20048;-58
2021/11/21 04:02:41;;;;;;;10.07;7.13;;;;;;;;;;5052775;28;20025;-58
2021/11/21 04:05:07;;;;;;;11.07;7.00;;;;;;;;;;5034868;28;20029;-57
2021/11/21 04:07:34;;;;;;;10.85;8.20;;;;;;;;;;5034975;28;20096;-57
2021/11/21 04:10:00;;;;;;;9.70;8.05;;;;;;;;;;5034220;28;20461;-57
2021/11/21 04:12:27;;;;;;;11.48;7.97;;;;;;;;;;5034835;28;20029;-57
2021/11/21 04:14:53;;;;;;;7.53;6.25;;;;;;;;;;5034497;28;20045;-57
2021/11/21 04:17:19;;;;;;;8.93;7.00;;;;;;;;;;5034704;28;20033;-58
2021/11/21 04:19:45;;;;;;;9.02;7.25;;;;;;;;;;5033819;28;20040;-57
2021/11/21 04:22:11;;;;;;;9.15;6.25;;;;;;;;;;5034514;28;20029;-58
2021/11/21 04:24:37;;;;;;;7.72;6.40;;;;;;;;;;5034472;28;20091;-57
2021/11/21 04:27:04;;;;;;;8.65;6.28;;;;;;;;;;5034487;28;20039;-57
2021/11/21 04:29:30;;;;;;;7.40;6.10;;;;;;;;;;5033240;28;20029;-57
2021/11/21 04:31:56;;;;;;;6.10;5.50;;;;;;;;;;5029158;28;20352;-58
2021/11/21 04:34:22;;;;;;;9.07;6.85;;;;;;;;;;5046593;28;20120;-58
2021/11/21 04:36:48;;;;;;;8.63;6.55;;;;;;;;;;5045173;28;20112;-58
2021/11/21 04:39:14;;;;;;;8.88;6.47;;;;;;;;;;5033295;28;20463;-57
2021/11/21 04:41:40;;;;;;;7.97;6.80;;;;;;;;;;5043711;28;20033;-57
2021/11/21 04:44:06;;;;;;;9.55;6.07;;;;;;;;;;5041495;28;20025;-57
2021/11/21 04:46:32;;;;;;;9.43;7.53;;;;;;;;;;5047031;28;20106;-57
2021/11/21 04:48:58;;;;;;;8.68;7.22;;;;;;;;;;5048321;28;20051;-57
2021/11/21 04:51:24;;;;;;;8.52;7.18;;;;;;;;;;5034200;28;20029;-57
2021/11/21 04:53:50;;;;;;;8.00;6.13;;;;;;;;;;5042119;28;20029;-57
2021/11/21 04:56:16;;;;;;;8.65;6.55;;;;;;;;;;5048965;28;20375;-57
2021/11/21 04:58:42;;;;;;;7.57;6.63;;;;;;;;;;5033387;28;20497;-57
2021/11/21 05:01:08;;;;;;;12.63;7.15;;;;;;;;;;5045049;28;20364;-58
2021/11/21 05:03:34;;;;;;;7.80;6.38;;;;;;;;;;5045924;28;20378;-57
2021/11/21 05:06:00;;;;;;;7.87;6.50;;;;;;;;;;5053757;28;20467;-57
2021/11/21 05:08:26;;;;;;;8.63;6.47;;;;;;;;;;5038118;28;20079;-58
2021/11/21 05:10:52;;;;;;;9.43;6.32;;;;;;;;;;5049389;28;20037;-57
2021/11/21 05:13:18;;;;;;;7.78;5.90;;;;;;;;;;5034035;28;20108;-58
2021/11/21 05:15:44;;;;;;;8.77;6.82;;;;;;;;;;5049275;28;20151;-58
2021/11/21 05:18:10;;;;;;;7.50;6.20;;;;;;;;;;5048138;28;20029;-57
2021/11/21 05:20:36;;;;;;;7.38;5.22;;;;;;;;;;5033427;28;20029;-57
2021/11/21 05:23:02;;;;;;;7.38;6.57;;;;;;;;;;5043591;28;20028;-58
2021/11/21 05:25:28;;;;;;;7.82;5.90;;;;;;;;;;5052034;28;20033;-57
2021/11/21 05:27:54;;;;;;;6.43;5.45;;;;;;;;;;5040153;28;20496;-58
2021/11/21 05:30:22;;;;;;;7.03;5.88;;;;;;;;;;5046329;28;20096;-57
2021/11/21 05:32:48;;;;;;;8.98;6.13;;;;;;;;;;5036212;28;20033;-57
2021/11/21 05:35:16;;;;;;;7.80;5.57;;;;;;;;;;5049039;28;20037;-57
2021/11/21 05:37:42;;;;;;;6.60;5.25;;;;;;;;;;5040209;28;20056;-58
2021/11/21 05:40:10;;;;;;;9.67;6.97;;;;;;;;;;5052275;28;20391;-58
2021/11/21 05:42:35;;;;;;;7.28;6.07;;;;;;;;;;5037247;28;20030;-58
2021/11/21 05:45:02;;;;;;;8.43;6.88;;;;;;;;;;5034856;28;20036;-58
2021/11/21 05:47:28;;;;;;;6.63;5.13;;;;;;;;;;5040158;28;20077;-57
2021/11/21 05:49:54;;;;;;;7.30;6.10;;;;;;;;;;5041136;28;20033;-58
2021/11/21 05:52:20;;;;;;;9.00;6.20;;;;;;;;;;5050758;28;20040;-58
2021/11/21 05:54:46;;;;;;;10.37;4.70;;;;;;;;;;5041421;28;20025;-58
2021/11/21 05:57:12;;;;;;;8.23;6.28;;;;;;;;;;5051968;28;20095;-58
2021/11/21 05:59:39;;;;;;;7.80;4.53;;;;;;;;;;5051827;28;20445;-57
2021/11/21 06:02:05;;;;;;;9.53;6.77;;;;;;;;;;5038354;28;20126;-58
2021/11/21 06:04:31;;;;;;;7.22;5.35;;;;;;;;;;5047437;28;20033;-57
2021/11/21 06:06:57;;;;;;;17.42;6.40;;;;;;;;;;5037097;28;20040;-58
2021/11/21 06:09:23;;;;;;;14.73;5.23;;;;;;;;;;5042325;28;20501;-58
2021/11/21 06:11:51;;;;;;;16.10;5.47;;;;;;;;;;5045372;28;20053;-58
2021/11/21 06:14:17;;;;;;;8.85;5.97;;;;;;;;;;5039813;28;20452;-58
2021/11/21 06:16:43;;;;;;;6.18;5.55;;;;;;;;;;5047415;28;20037;-58
2021/11/21 06:19:09;;;;;;;5.55;4.95;;;;;;;;;;5034992;28;20395;-58
2021/11/21 06:21:35;;;;;;;8.47;6.20;;;;;;;;;;5050616;28;20141;-57
2021/11/21 06:24:01;;;;;;;7.50;6.57;;;;;;;;;;5041980;28;20025;-58
2021/11/21 06:26:27;;;;;;;6.40;4.63;;;;;;;;;;5036284;28;20036;-57
2021/11/21 06:28:53;;;;;;;11.83;6.57;;;;;;;;;;5050228;28;20029;-57
2021/11/21 06:31:19;;;;;;;8.03;6.03;;;;;;;;;;5032361;28;20180;-58
2021/11/21 06:33:45;;;;;;;10.10;7.07;;;;;;;;;;5040239;28;20175;-58
2021/11/21 06:36:11;;;;;;;5.28;3.88;;;;;;;;;;5040013;28;20536;-58
2021/11/21 06:38:37;;;;;;;11.05;6.25;;;;;;;;;;5046407;28;20036;-58
2021/11/21 06:41:03;;;;;;;5.90;4.80;;;;;;;;;;5049290;28;20036;-58
2021/11/21 06:43:29;;;;;;;17.25;5.65;;;;;;;;;;5032199;28;20029;-56
2021/11/21 06:45:55;;;;;;;5.35;3.60;;;;;;;;;;5040584;28;20051;-58
2021/11/21 06:48:22;;;;;;;14.33;5.30;;;;;;;;;;5047044;28;20029;-58
2021/11/21 06:50:51;;;;;;;9.50;6.00;;;;;;;;;;5035456;28;20288;-58
2021/11/21 06:53:17;;;;;;;6.78;4.93;;;;;;;;;;5049008;28;20053;-58
2021/11/21 06:55:43;;;;;;;8.10;4.80;;;;;;;;;;5043773;28;20025;-58
2021/11/21 06:58:09;;;;;;;6.68;5.35;;;;;;;;;;5043028;28;20037;-58
2021/11/21 07:00:35;;;;;;;7.00;3.85;;;;;;;;;;5035914;28;20471;-57
2021/11/21 07:03:01;;;;;;;7.07;5.07;;;;;;;;;;5049204;28;20032;-58
2021/11/21 07:05:28;;;;;;;8.32;5.68;;;;;;;;;;5049508;28;20021;-58
2021/11/21 07:07:54;;;;;;;5.88;5.25;;;;;;;;;;5052895;28;20043;-58
2021/11/21 07:10:20;;;;;;;6.57;5.28;;;;;;;;;;5048639;28;20026;-58
2021/11/21 07:12:46;;;;;;;7.30;4.55;;;;;;;;;;5043877;28;20029;-58
2021/11/21 07:15:14;;;;;;;7.32;4.45;;;;;;;;;;5055401;28;20078;-58
2021/11/21 07:17:40;;;;;;;7.13;5.53;;;;;;;;;;5040030;28;20044;-57
2021/11/21 07:20:06;;;;;;;8.57;5.68;;;;;;;;;;5037894;28;20076;-57
2021/11/21 07:22:32;;;;;;;7.97;5.40;;;;;;;;;;5055393;28;20021;-57
2021/11/21 07:24:58;;;;;;;6.57;4.60;;;;;;;;;;5045664;28;20029;-58
2021/11/21 07:27:24;;;;;;;7.68;5.68;;;;;;;;;;5035635;28;20029;-57
2021/11/21 07:29:51;;;;;;;6.35;5.63;;;;;;;;;;5036927;28;20490;-58
2021/11/21 07:32:17;;;;;;;6.00;4.63;;;;;;;;;;5047657;28;20068;-58
2021/11/21 07:34:43;;;;;;;8.85;5.75;;;;;;;;;;5050058;28;20033;-58
2021/11/21 07:37:09;;;;;;;6.53;4.88;;;;;;;;;;5051096;28;20208;-57
2021/11/21 07:39:35;;;;;;;6.57;5.65;;;;;;;;;;5036916;28;20171;-57
2021/11/21 07:42:01;;;;;;;11.73;6.90;;;;;;;;;;5049021;28;20104;-57
2021/11/21 07:44:27;;;;;;;17.83;8.00;;;;;;;;;;5043569;28;20022;-58
2021/11/21 07:46:53;;;;;;;10.98;8.15;;;;;;;;;;5043948;28;20036;-58
2021/11/21 07:49:19;;;;;;;8.52;6.97;;;;;;;;;;5054018;28;20033;-57
2021/11/21 07:51:47;;;;;;;10.95;7.32;;;;;;;;;;5038698;28;20025;-58
2021/11/21 07:54:13;;;;;;;9.27;6.55;;;;;;;;;;5046902;28;20055;-58
2021/11/21 07:56:39;;;;;;;11.02;8.10;;;;;;;;;;5054895;28;20033;-58
2021/11/21 07:59:05;;;;;;;16.67;9.38;;;;;;;;;;5037353;28;20390;-57
2021/11/21 08:01:31;;;;;;;7.93;7.20;;;;;;;;;;5048220;28;20029;-58
2021/11/21 08:03:57;;;;;;;7.65;6.80;;;;;;;;;;5045867;28;20067;-58
2021/11/21 08:06:23;;;;;;;8.55;7.15;;;;;;;;;;5036112;28;20057;-58
2021/11/21 08:08:49;;;;;;;9.48;7.15;;;;;;;;;;5047755;28;20079;-58
2021/11/21 08:11:14;;;;;;;10.55;8.45;;;;;;;;;;5054741;28;20027;-58
2021/11/21 08:13:40;;;;;;;8.23;7.38;;;;;;;;;;5054522;28;20064;-58
2021/11/21 08:16:07;;;;;;;8.55;7.32;;;;;;;;;;5041944;28;20048;-58
2021/11/21 08:18:33;;;;;;;12.32;7.88;;;;;;;;;;5048741;28;20433;-58
2021/11/21 08:20:59;;;;;;;9.57;6.40;;;;;;;;;;5041825;28;20029;-58
2021/11/21 08:23:25;;;;;;;11.02;8.32;;;;;;;;;;5052575;28;20450;-58
2021/11/21 08:25:51;;;;;;;11.40;7.72;;;;;;;;;;5036215;28;20383;-58
2021/11/21 08:28:17;;;;;;;8.45;6.82;;;;;;;;;;5033751;28;20033;-57
2021/11/21 08:30:43;;;;;;;12.40;9.15;;;;;;;;;;5035489;28;20029;-60
2021/11/21 08:33:10;;;;;;;11.77;8.73;;;;;;;;;;5034097;28;20033;-58
2021/11/21 08:35:37;;;;;;;10.45;7.85;;;;;;;;;;5053963;28;20159;-57
2021/11/21 08:38:04;;;;;;;9.65;7.97;;;;;;;;;;5053407;28;20052;-58
2021/11/21 08:40:30;;;;;;;13.35;9.30;;;;;;;;;;5052520;28;20020;-58
2021/11/21 08:43:01;;;;;;;10.32;7.97;;;;;;;;;;5053875;28;20033;-56
2021/11/21 08:45:29;;;;;;;13.23;8.10;;;;;;;;;;5053930;28;20021;-58
2021/11/21 08:47:55;;;;;;;16.52;9.57;;;;;;;;;;5053226;28;20471;-58
2021/11/21 08:50:22;;;;;;;12.75;9.02;;;;;;;;;;5036216;28;20043;-57
2021/11/21 08:52:48;;;;;;;12.13;9.75;;;;;;;;;;5033969;28;20026;-58
2021/11/21 08:55:15;;;;;;;28.42;9.55;;;;;;;;;;5051580;28;20104;-58
2021/11/21 08:57:42;;;;;;;11.05;7.00;;;;;;;;;;5037435;28;20064;-59
2021/11/21 09:00:09;;;;;;;10.57;8.10;;;;;;;;;;5041266;28;20033;-58
2021/11/21 09:02:35;;;;;;;10.60;8.82;;;;;;;;;;5044406;28;20036;-59
2021/11/21 09:05:06;;;;;;;15.48;9.50;;;;;;;;;;5042475;28;20041;-59
2021/11/21 09:07:32;;;;;;;13.43;9.25;;;;;;;;;;5052257;28;20425;-59
2021/11/21 09:09:58;;;;;;;11.93;9.10;;;;;;;;;;5042168;28;20033;-59
2021/11/21 09:12:24;;;;;;;9.05;7.32;;;;;;;;;;5037644;28;20394;-59
2021/11/21 09:14:52;;;;;;;11.27;10.10;;;;;;;;;;5045013;28;20025;-59
2021/11/21 09:17:18;;;;;;;10.60;7.93;;;;;;;;;;5038377;28;20094;-59
2021/11/21 09:19:44;;;;;;;14.20;8.43;;;;;;;;;;5032275;28;20144;-59
2021/11/21 09:22:10;;;;;;;8.38;7.53;;;;;;;;;;5048940;28;20035;-57
2021/11/21 09:24:36;;;;;;;10.27;8.02;;;;;;;;;;5052069;28;20387;-59
2021/11/21 09:27:02;;;;;;;14.13;9.68;;;;;;;;;;5043320;28;20033;-59
2021/11/21 09:29:28;;;;;;;12.93;8.73;;;;;;;;;;5048896;28;20035;-59
2021/11/21 09:31:54;;;;;;;10.63;8.50;;;;;;;;;;5040873;28;20025;-59
2021/11/21 09:34:20;;;;;;;19.63;8.52;;;;;;;;;;5039844;28;20518;-59
2021/11/21 09:36:46;;;;;;;11.60;9.30;;;;;;;;;;5040506;28;20291;-59
2021/11/21 09:39:12;;;;;;;11.60;9.65;;;;;;;;;;5035627;28;20041;-59
2021/11/21 09:41:39;;;;;;;17.98;8.48;;;;;;;;;;5036713;28;20033;-59
2021/11/21 09:44:06;;;;;;;12.50;9.55;;;;;;;;;;5036691;28;20021;-59
2021/11/21 09:46:32;;;;;;;12.95;8.88;;;;;;;;;;5038351;28;20128;-59
2021/11/21 09:48:58;;;;;;;13.63;9.18;;;;;;;;;;5041992;28;20037;-59
2021/11/21 09:51:24;;;;;;;12.27;8.80;;;;;;;;;;5045465;28;20021;-59
2021/11/21 09:53:50;;;;;;;18.88;8.30;;;;;;;;;;5044722;28;20032;-59
2021/11/21 09:56:16;;;;;;;14.63;8.05;;;;;;;;;;5032631;28;20025;-59
2021/11/21 09:58:44;;;;;;;10.15;8.00;;;;;;;;;;5036262;28;20042;-59
2021/11/21 10:01:29;;;;;;;11.15;8.35;;;;;;;;;;5043901;28;20032;-59
2021/11/21 10:03:55;;;;;;;17.55;9.15;;;;;;;;;;5044198;28;20036;-59
2021/11/21 10:06:48;;;;;;;11.57;7.65;;;;;;;;;;5033043;28;20152;-58
2021/11/21 10:09:18;;;;;;;26.48;8.98;;;;;;;;;;5048155;28;20032;-59
2021/11/21 10:12:04;;;;;;;11.93;10.25;;;;;;;;;;5041535;28;20482;-59
2021/11/21 10:14:32;;;;;;;13.75;8.98;;;;;;;;;;5056103;28;20466;-59
2021/11/21 10:16:58;;;;;;;23.58;10.93;;;;;;;;;;5049890;28;20131;-58
2021/11/21 10:19:23;;;;;;;12.70;9.75;;;;;;;;;;5031623;28;20451;-58
2021/11/21 10:21:54;;;;;;;24.35;10.18;;;;;;;;;;5035729;28;20029;-59
2021/11/21 10:24:28;;;;;;;13.93;9.18;;;;;;;;;;5044633;28;20029;-59
2021/11/21 10:27:01;;;;;;;9.13;8.05;;;;;;;;;;5044689;28;20028;-58
2021/11/21 10:29:29;;;;;;;20.80;10.35;;;;;;;;;;5049544;28;20033;-58
2021/11/21 10:31:55;;;;;;;24.48;10.80;;;;;;;;;;5051786;28;20025;-57
2021/11/21 10:34:21;;;;;;;14.40;9.07;;;;;;;;;;5052051;28;20029;-58
2021/11/21 10:36:47;;;;;;;13.63;8.80;;;;;;;;;;5052063;28;20120;-58
2021/11/21 10:39:16;;;;;;;13.20;8.43;;;;;;;;;;5041368;28;20045;-57
2021/11/21 10:41:44;;;;;;;16.27;9.25;;;;;;;;;;5050933;28;20104;-58
2021/11/21 10:44:15;;;;;;;8.15;7.10;;;;;;;;;;5050342;28;20099;-58
2021/11/21 10:46:42;;;;;;;;;;;;;;;;;;5037123;28;20471;-58
2021/11/21 10:49:12;;;;;;;11.02;7.50;;;;;;;;;;5045882;28;20008;-58
2021/11/21 10:51:39;;;;;;;10.02;8.82;;;;;;;;;;5046712;28;20037;-57
2021/11/21 10:54:17;;;;;;;10.77;7.55;;;;;;;;;;5042722;28;20036;-58
2021/11/21 10:56:47;;;;;;;13.45;7.40;;;;;;;;;;5042541;28;20031;-59
2021/11/21 10:59:13;;;;;;;12.50;9.55;;;;;;;;;;5031593;28;20052;-58
2021/11/21 11:01:39;;;;;;;17.23;7.65;;;;;;;;;;5032090;28;20328;-58
2021/11/21 11:04:06;;;;;;;10.98;8.48;;;;;;;;;;5044997;28;20025;-59
2021/11/21 11:06:32;;;;;;;16.55;10.00;;;;;;;;;;5050655;28;20092;-58
2021/11/21 11:09:15;;;;;;;19.02;8.98;;;;;;;;;;5032741;28;20053;-58
2021/11/21 11:11:41;;;;;;;13.15;9.23;;;;;;;;;;5045859;28;20021;-58
2021/11/21 11:14:06;;;;;;;10.25;8.05;;;;;;;;;;5040652;28;20549;-59
2021/11/21 11:16:32;;;;;;;13.07;9.52;;;;;;;;;;5036339;28;20337;-59
2021/11/21 11:18:59;;;;;;;13.73;9.27;;;;;;;;;;5050600;28;20032;-58
2021/11/21 11:21:26;;;;;;;11.60;9.27;;;;;;;;;;5041754;28;20025;-58
2021/11/21 11:23:52;;;;;;;11.82;8.52;;;;;;;;;;5041983;28;20095;-58
2021/11/21 11:26:20;;;;;;;12.10;9.68;;;;;;;;;;5033601;28;20032;-58
2021/11/21 11:28:49;;;;;;;11.32;9.70;;;;;;;;;;5039959;28;20401;-58
2021/11/21 11:31:25;;;;;;;19.05;9.88;;;;;;;;;;5045588;28;20087;-58
2021/11/21 11:33:52;;;;;;;17.13;10.80;;;;;;;;;;5042343;28;20388;-58
2021/11/21 11:36:25;;;;;;;16.90;10.23;;;;;;;;;;5038037;28;20029;-58
2021/11/21 11:39:00;;;;;;;12.82;10.02;;;;;;;;;;5046654;28;20040;-58
2021/11/21 11:41:27;;;;;;;14.98;9.95;;;;;;;;;;5040144;28;20029;-58
2021/11/21 11:43:54;;;;;;;16.17;10.98;;;;;;;;;;5054936;28;20107;-58
2021/11/21 11:46:25;;;;;;;15.35;11.18;;;;;;;;;;5042367;28;20021;-58
2021/11/21 11:48:52;;;;;;;14.43;10.40;;;;;;;;;;5034410;28;20030;-58
2021/11/21 11:51:23;;;;;;;17.90;10.50;;;;;;;;;;5044274;28;20025;-58
2021/11/21 11:53:53;;;;;;;12.43;8.40;;;;;;;;;;5045775;28;20029;-58
2021/11/21 11:56:31;;;;;;;14.55;8.05;;;;;;;;;;5049329;28;20356;-58
2021/11/21 11:59:00;;;;;;;10.75;8.80;;;;;;;;;;5035432;28;20497;-58
2021/11/21 12:01:32;;;;;;;12.32;8.48;;;;;;;;;;5048383;28;20055;-58
2021/11/21 12:03:59;;;;;;;11.30;9.00;;;;;;;;;;5039355;28;20025;-58
2021/11/21 12:06:41;;;;;;;11.85;8.13;;;;;;;;;;5039940;28;20032;-58
2021/11/21 12:09:22;;;;;;;9.75;8.10;;;;;;;;;;5053319;28;20033;-58
2021/11/21 12:11:52;;;;;;;23.83;8.77;;;;;;;;;;5042875;28;20041;-58
2021/11/21 12:14:27;;;;;;;24.10;10.40;;;;;;;;;;5039827;28;20382;-57
2021/11/21 12:16:57;;;;;;;18.65;11.15;;;;;;;;;;5045298;28;20137;-59
2021/11/21 12:19:44;;;;;;;11.07;9.13;;;;;;;;;;5035156;28;20463;-59
2021/11/21 12:22:25;;;;;;;16.23;9.98;;;;;;;;;;5054171;28;20435;-57
2021/11/21 12:24:56;;;;;;;21.90;9.23;;;;;;;;;;5037040;28;20040;-58
2021/11/21 12:27:26;;;;;;;;;;;;;;;;;;5049919;28;20033;-59
2021/11/21 12:30:03;;;;;;;28.98;10.88;;;;;;;;;;5042289;28;19920;-58
2021/11/21 12:32:30;;;;;;;23.00;10.10;;;;;;;;;;5040042;28;20029;-58
2021/11/21 12:34:57;;;;;;;13.25;8.88;;;;;;;;;;5034767;28;20084;-58
2021/11/21 12:37:26;;;;;;;13.18;8.60;;;;;;;;;;5052418;28;20039;-59
2021/11/21 12:39:56;;;;;;;20.50;10.30;;;;;;;;;;5044337;28;20038;-59
2021/11/21 12:42:29;;;;;;;15.57;10.23;;;;;;;;;;5047227;28;20041;-58
2021/11/21 12:45:12;;;;;;;23.83;11.38;;;;;;;;;;5045716;28;20505;-58
2021/11/21 12:47:39;;;;;;;15.13;10.05;;;;;;;;;;5057545;28;20398;-58
2021/11/21 12:50:05;;;;;;;18.02;10.07;;;;;;;;;;5042698;28;20651;-58
2021/11/21 12:52:32;;;;;;;25.67;10.73;;;;;;;;;;5040219;28;20112;-58
2021/11/21 12:54:58;;;;;;;17.50;9.48;;;;;;;;;;5036914;28;20426;-59
2021/11/21 12:57:24;;;;;;;14.25;11.52;;;;;;;;;;5039692;28;20094;-59
2021/11/21 12:59:50;;;;;;;22.60;12.20;;;;;;;;;;5050920;28;20039;-59
2021/11/21 13:02:17;;;;;;;19.63;12.05;;;;;;;;;;5045199;28;20020;-59
2021/11/21 13:05:15;;;;;;;36.85;11.88;;;;;;;;;;5050070;28;20128;-59
2021/11/21 13:07:44;;;;;;;19.20;10.50;;;;;;;;;;5031289;28;20033;-59
2021/11/21 13:10:13;;;;;;;17.40;11.30;;;;;;;;;;5048658;28;20537;-59
2021/11/21 13:12:40;;;;;;;11.23;9.25;;;;;;;;;;5048765;28;20029;-59
2021/11/21 13:15:06;;;;;;;16.15;10.70;;;;;;;;;;5036508;28;20056;-59
2021/11/21 13:17:32;;;;;;;13.15;10.85;;;;;;;;;;5046976;28;20051;-59
2021/11/21 13:20:06;;;;;;;15.20;11.30;;;;;;;;;;5034035;28;20043;-59
2021/11/21 13:22:48;;;;;;;13.50;11.55;;;;;;;;;;5047106;28;20082;-58
2021/11/21 13:25:27;;;;;;;20.27;12.93;;;;;;;;;;5036890;28;20028;-59
2021/11/21 13:27:53;;;;;;;15.45;11.15;;;;;;;;;;5035298;28;20079;-59
2021/11/21 13:30:20;;;;;;;16.33;10.65;;;;;;;;;;5048082;28;20449;-59
2021/11/21 13:32:46;;;;;;;18.05;11.15;;;;;;;;;;5044888;28;20467;-59
2021/11/21 13:35:19;;;;;;;27.92;12.13;;;;;;;;;;5035951;28;20032;-59
2021/11/21 13:37:46;;;;;;;17.63;12.15;;;;;;;;;;5052516;28;20505;-59
2021/11/21 13:40:13;;;;;;;15.73;10.63;;;;;;;;;;5038098;28;20029;-59
2021/11/21 13:42:40;;;;;;;15.75;11.25;;;;;;;;;;5040221;28;20331;-59
2021/11/21 13:45:06;;;;;;;14.15;9.98;;;;;;;;;;5041393;28;20033;-59
2021/11/21 13:47:32;;;;;;;15.02;11.43;;;;;;;;;;5032747;28;20391;-59
2021/11/21 13:49:59;;;;;;;18.45;10.80;;;;;;;;;;5032447;28;20446;-59
2021/11/21 13:52:25;;;;;;;13.32;10.07;;;;;;;;;;5041723;28;20029;-57
2021/11/21 13:54:53;;;;;;;17.55;10.57;;;;;;;;;;5043711;28;20079;-58
2021/11/21 13:57:22;;;;;;;20.17;12.32;;;;;;;;;;5049317;28;20352;-59
2021/11/21 13:59:48;;;;;;;17.10;12.05;;;;;;;;;;5049879;28;20041;-58
2021/11/21 14:02:14;;;;;;;18.38;12.45;;;;;;;;;;5039658;28;20036;-59
2021/11/21 14:04:40;;;;;;;15.38;11.90;;;;;;;;;;5042294;28;20033;-59
2021/11/21 14:07:16;;;;;;;16.35;12.00;;;;;;;;;;5033896;28;20387;-59
2021/11/21 14:09:56;;;;;;;22.58;14.27;;;;;;;;;;5031932;28;20040;-59
2021/11/21 14:12:27;;;;;;;19.20;14.48;;;;;;;;;;5045064;28;20033;-59
2021/11/21 14:15:03;;;;;;;16.50;12.43;;;;;;;;;;5047348;28;20491;-58
2021/11/21 14:17:29;;;;;;;16.27;10.90;;;;;;;;;;5049850;28;20466;-59
2021/11/21 14:19:55;;;;;;;17.48;11.00;;;;;;;;;;5047909;28;20024;-59
2021/11/21 14:22:27;;;;;;;22.80;14.25;;;;;;;;;;5048686;28;20021;-59
2021/11/21 14:24:55;;;;;;;14.48;10.68;;;;;;;;;;5048519;28;20378;-59
2021/11/21 14:27:26;;;;;;;16.13;12.15;;;;;;;;;;5032775;28;20021;-59
2021/11/21 14:29:53;;;;;;;14.10;10.63;;;;;;;;;;5040791;28;20494;-59
2021/11/21 14:32:19;;;;;;;14.35;10.63;;;;;;;;;;5042113;28;20471;-59